地図

経路データ

SID SEASON NUMBER BASIN SUBBASIN NAME ISO_TIME NATURE LAT LON WMO_WIND WMO_PRES WMO_AGENCY TRACK_TYPE DIST2LAND LANDFALL IFLAG USA_AGENCY USA_ATCF_ID USA_LAT USA_LON USA_RECORD USA_STATUS USA_WIND USA_PRES USA_SSHS USA_R34_NE USA_R34_SE USA_R34_SW USA_R34_NW USA_R50_NE USA_R50_SE USA_R50_SW USA_R50_NW USA_R64_NE USA_R64_SE USA_R64_SW USA_R64_NW USA_POCI USA_ROCI USA_RMW USA_EYE TOKYO_LAT TOKYO_LON TOKYO_GRADE TOKYO_WIND TOKYO_PRES TOKYO_R50_DIR TOKYO_R50_LONG TOKYO_R50_SHORT TOKYO_R30_DIR TOKYO_R30_LONG TOKYO_R30_SHORT TOKYO_LAND CMA_LAT CMA_LON CMA_CAT CMA_WIND CMA_PRES HKO_LAT HKO_LON HKO_CAT HKO_WIND HKO_PRES NEWDELHI_LAT NEWDELHI_LON NEWDELHI_GRADE NEWDELHI_WIND NEWDELHI_PRES NEWDELHI_CI NEWDELHI_DP NEWDELHI_POCI REUNION_LAT REUNION_LON REUNION_TYPE REUNION_WIND REUNION_PRES REUNION_TNUM REUNION_CI REUNION_RMW REUNION_R34_NE REUNION_R34_SE REUNION_R34_SW REUNION_R34_NW REUNION_R50_NE REUNION_R50_SE REUNION_R50_SW REUNION_R50_NW REUNION_R64_NE REUNION_R64_SE REUNION_R64_SW REUNION_R64_NW BOM_LAT BOM_LON BOM_TYPE BOM_WIND BOM_PRES BOM_TNUM BOM_CI BOM_RMW BOM_R34_NE BOM_R34_SE BOM_R34_SW BOM_R34_NW BOM_R50_NE BOM_R50_SE BOM_R50_SW BOM_R50_NW BOM_R64_NE BOM_R64_SE BOM_R64_SW BOM_R64_NW BOM_ROCI BOM_POCI BOM_EYE BOM_POS_METHOD BOM_PRES_METHOD NADI_LAT NADI_LON NADI_CAT NADI_WIND NADI_PRES WELLINGTON_LAT WELLINGTON_LON WELLINGTON_WIND WELLINGTON_PRES DS824_LAT DS824_LON DS824_STAGE DS824_WIND DS824_PRES TD9636_LAT TD9636_LON TD9636_STAGE TD9636_WIND TD9636_PRES TD9635_LAT TD9635_LON TD9635_WIND TD9635_PRES TD9635_ROCI NEUMANN_LAT NEUMANN_LON NEUMANN_CLASS NEUMANN_WIND NEUMANN_PRES MLC_LAT MLC_LON MLC_CLASS MLC_WIND MLC_PRES USA_GUST BOM_GUST BOM_GUST_PER REUNION_GUST REUNION_GUST_PER USA_SEAHGT USA_SEARAD_NE USA_SEARAD_SE USA_SEARAD_SW USA_SEARAD_NW STORM_SPEED STORM_DIR
1999029S14096 1999 9 SI WA CHIKITA 1999-01-29 06:00:00 NR -13.7000 96.3000 main 1243 1243 O_____________ jtwc_sh SH171999 -13.7000 96.3000 20 -1 7 248
1999029S14096 1999 9 SI WA CHIKITA 1999-01-29 09:00:00 NR -13.8376 95.9575 main 1275 1275 P_____________ SH171999 -13.8376 95.9575 20 -1 9 246
1999029S14096 1999 9 SI WA CHIKITA 1999-01-29 12:00:00 TS -14.0800 95.4400 main 1347 1347 O____O______O_ jtwc_sh SH171999 -14.0000 95.6000 20 -1 -14.2000 95.2000 2 20 1001 1.50000 1.50000 -14.2000 95.2000 TC 25 1001 10 246
1999029S14096 1999 9 SI WA CHIKITA 1999-01-29 15:00:00 TS -14.2601 94.9739 main 1395 1395 P____P______P_ SH171999 -14.1999 95.2150 22 -1 -14.3202 94.7327 2 20 1001 -14.3202 94.7327 TC 25 1001 10 251
1999029S14096 1999 9 SI WA CHIKITA 1999-01-29 18:00:00 TS -14.4000 94.5000 main 1441 1441 O____O______O_ jtwc_sh SH171999 -14.4000 94.8000 25 -1 -14.4000 94.3000 2 20 1001 1.50000 1.50000 -14.4000 94.3000 TC 25 1001 9 256
1999029S14096 1999 9 SI WA CHIKITA 1999-01-29 21:00:00 TS -14.4708 94.0707 main 1478 1478 P____P______P_ SH171999 -14.5575 94.3574 25 -1 -14.4274 93.9273 2 20 1001 -14.4274 93.9273 TC 25 1001 8 258
1999029S14096 1999 9 SI WA CHIKITA 1999-01-30 00:00:00 TS -14.5667 93.7000 main 1515 1515 O____O______O_ jtwc_sh SH171999 -14.7000 93.9000 25 -1 -14.5000 93.6000 2 20 1001 1.50000 1.50000 -14.5000 93.6000 TC 25 1001 8 247
1999029S14096 1999 9 SI WA CHIKITA 1999-01-30 03:00:00 TS -14.7582 93.3549 main 1553 1553 P____P______P_ SH171999 -14.8348 93.4648 25 -1 -14.7199 93.3000 2 20 1000 -14.7199 93.3000 TC 27 1000 8 237
1999029S14096 1999 9 SI WA CHIKITA 1999-01-30 06:00:00 TS -15.0000 93.0000 main 1598 1598 O____O______O_ jtwc_sh SH171999 -15.0000 93.0000 25 -1 -15.0000 93.0000 2 20 1000 1.50000 1.50000 -15.0000 93.0000 TC 30 1000 8 234
1999029S14096 1999 9 SI WA CHIKITA 1999-01-30 09:00:00 TS -15.2419 92.6704 main 1636 1636 P____P______P_ SH171999 -15.2423 92.4875 25 -1 -15.2416 92.7619 2 22 999 -15.2416 92.7619 TC 30 999 9 238
1999029S14096 1999 9 SI WA CHIKITA 1999-01-30 12:00:00 TS -15.5000 92.1667 main 1697 1697 O____O______O_ jtwc_sh SH171999 -15.5000 91.9000 25 -1 -15.5000 92.3000 2 25 999 2.00000 2.00000 -15.5000 92.3000 TC 30 999 14 248
1999029S14096 1999 9 SI WA CHIKITA 1999-01-30 15:00:00 TS -15.7620 91.3233 main 1785 1785 P____P______P_ SH171999 -15.6996 91.2596 27 -1 -15.7932 91.3551 2 25 999 -15.7932 91.3551 TC 30 999 19 253
1999029S14096 1999 9 SI WA CHIKITA 1999-01-30 18:00:00 TS -16.0333 90.3000 main 1858 1858 O____O______O_ jtwc_sh SH171999 -15.9000 90.5000 30 -1 -16.1000 90.2000 2 25 999 2.00000 2.00000 -16.1000 90.2000 TC 30 999 20 254
1999029S14096 1999 9 SI MM CHIKITA 1999-01-30 21:00:00 TS -16.3311 89.3108 main 1944 1944 P____P______P_ SH171999 -16.1491 89.6473 30 -1 -16.4221 89.1426 2 25 999 -16.4221 89.1426 TC 30 999 20 254
1999029S14096 1999 9 SI MM CHIKITA 1999-01-31 00:00:00 TS -16.6000 88.2667 25 999 reunion main 2033 2033 O____O______O_ jtwc_sh SH171999 -16.4000 88.6000 30 -1 -16.7000 88.1000 2 25 999 2.00000 2.00000 -16.7000 88.1000 TC 30 999 21 257
1999029S14096 1999 9 SI MM CHIKITA 1999-01-31 03:00:00 TS -16.7860 87.1845 main 2121 2121 P____P______P_ SH171999 -16.6002 87.3095 32 -1 -16.8789 87.1220 2 27 997 -16.8789 87.1220 TC 35 997 22 261
1999029S14096 1999 9 SI MM CHIKITA 1999-01-31 06:00:00 TS -16.9333 86.0333 30 995 reunion main 2211 2211 O____O______O_ jtwc_sh SH171999 -16.8000 85.9000 35 0 -17.0000 86.1000 2 30 995 2.50000 2.50000 -17.0000 86.1000 TC 40 995 24 263
1999029S14096 1999 9 SI MM CHIKITA 1999-01-31 09:00:00 TS -17.0564 84.7429 main 2321 2321 P____P______P_ SH171999 -17.0279 84.4750 37 0 -17.0706 84.8768 2 33 992 -17.0706 84.8768 TC 42 992 24 263
1999029S14096 1999 9 SI MM CHIKITA 1999-01-31 12:00:00 TS -17.2333 83.5333 37 990 reunion main 2419 2419 O____O______O_ jtwc_sh SH171999 -17.3000 83.2000 40 0 -17.2000 83.7000 3 37 990 3.00000 3.00000 -17.2000 83.7000 TC 45 990 21 256
1999029S14096 1999 9 SI MM CHIKITA 1999-01-31 15:00:00 TS -17.5699 82.5962 main 2519 2519 P____P______P_ SH171999 -17.6562 82.2526 40 0 -17.5267 82.7680 3 37 990 -17.5267 82.7680 TC 45 990 18 247
1999029S14096 1999 9 SI MM CHIKITA 1999-01-31 18:00:00 TS -17.9333 81.8333 37 990 reunion main 2533 2465 O____O______O_ jtwc_sh SH171999 -18.0000 81.5000 40 0 -17.9000 82.0000 3 37 990 2.50000 3.00000 -17.9000 82.0000 TC 45 990 15 246
1999029S14096 1999 9 SI MM CHIKITA 1999-01-31 21:00:00 TS -18.1835 81.1536 main 2465 2389 P____P______P_ SH171999 -18.2220 80.7770 40 0 -18.1642 81.3419 3 37 990 -18.1642 81.3419 TC 45 990 14 250
1999029S14096 1999 9 SI MM CHIKITA 1999-02-01 00:00:00 TS -18.4000 80.5000 37 990 reunion main 2389 2312 O____O______O_ jtwc_sh SH171999 -18.4000 80.1000 40 0 -18.4000 80.7000 3 37 990 2.50000 3.00000 -18.4000 80.7000 TC 45 990 14 251
1999029S14096 1999 9 SI MM CHIKITA 1999-02-01 03:00:00 TS -18.6357 79.7482 main 2302 2224 P____P______P_ SH171999 -18.6072 79.3999 40 0 -18.6499 79.9223 3 36 991 -18.6499 79.9223 TC 45 991 15 252
1999029S14096 1999 9 SI MM CHIKITA 1999-02-01 06:00:00 TS -18.8667 78.9667 35 992 reunion main 2224 2138 O____O______O_ jtwc_sh SH171999 -18.8000 78.7000 40 0 -18.9000 79.1000 3 35 992 2.00000 3.00000 -18.9000 79.1000 TC 45 992 15 252
1999029S14096 1999 9 SI MM CHIKITA 1999-02-01 09:00:00 TS -19.1154 78.2052 main 2138 2062 P____P______P_ SH171999 -18.9572 77.9998 40 0 -19.1945 78.3079 3 32 994 -19.1945 78.3079 TC 40 994 15 253
1999029S14096 1999 9 SI MM CHIKITA 1999-02-01 12:00:00 TS -19.3000 77.4333 30 996 reunion main 2052 1979 O____O______O_ jtwc_sh SH171999 -19.1000 77.3000 40 0 -19.4000 77.5000 2 30 996 2.00000 2.50000 -19.4000 77.5000 TC 35 996 15 261
1999029S14096 1999 9 SI MM CHIKITA 1999-02-01 15:00:00 TS -19.3486 76.6579 main 1979 1895 P____P______P_ SH171999 -19.2721 76.6151 40 0 -19.3869 76.6792 2 29 997 -19.3869 76.6792 TC 35 997 15 269
1999029S14096 1999 9 SI MM CHIKITA 1999-02-01 18:00:00 TS -19.3333 75.8333 28 998 reunion main 1885 1802 O____O______O_ jtwc_sh SH171999 -19.4000 75.9000 40 0 -19.3000 75.8000 2 28 998 2.00000 2.50000 -19.3000 75.8000 TC 35 998 16 271
1999029S14096 1999 9 SI MM CHIKITA 1999-02-01 21:00:00 TS -19.3279 74.9348 main 1791 1697 P____P______P_ SH171999 -19.4144 75.1445 40 0 -19.2847 74.8299 2 28 998 -19.2847 74.8299 TC 35 998 18 270
1999029S14096 1999 9 SI MM CHIKITA 1999-02-02 00:00:00 TS -19.3333 73.9667 28 998 reunion main 1697 1592 O____O______O_ jtwc_sh SH171999 -19.4000 74.3000 40 0 -19.3000 73.8000 2 28 998 2.00000 2.50000 -19.3000 73.8000 TC 35 998 18 269
1999029S14096 1999 9 SI MM CHIKITA 1999-02-02 03:00:00 TS -19.3748 72.9858 main 1592 1488 P____P______P_ SH171999 -19.4261 73.3970 40 0 -19.3491 72.7802 2 28 998 -19.3491 72.7802 TC 35 998 20 267
1999029S14096 1999 9 SI MM CHIKITA 1999-02-02 06:00:00 TS -19.4333 71.9000 28 998 reunion main 1477 1351 O____O______O_ jtwc_sh SH171999 -19.5000 72.3000 40 0 -19.4000 71.7000 2 28 998 2.00000 2.50000 -19.4000 71.7000 TC 35 998 22 267
1999029S14096 1999 9 SI MM CHIKITA 1999-02-02 09:00:00 TS -19.4990 70.6145 main 1340 1215 P____P______P_ SH171999 -19.6672 70.8286 40 0 -19.4149 70.5075 2 28 998 -19.4149 70.5075 TC 35 998 24 268
1999029S14096 1999 9 SI MM CHIKITA 1999-02-02 12:00:00 TS -19.5333 69.3333 28 998 reunion main 1205 1101 O____O______O_ jtwc_sh SH171999 -19.8000 69.4000 40 0 -19.4000 69.3000 2 28 998 2.00000 2.50000 -19.4000 69.3000 TC 35 998 22 270
1999029S14096 1999 9 SI MM CHIKITA 1999-02-02 15:00:00 TS -19.4944 68.2864 main 1101 1008 P____P______P_ SH171999 -19.7705 68.4594 40 0 -19.3563 68.1999 2 29 997 -19.3563 68.1999 TC 35 997 19 273
1999029S14096 1999 9 SI MM CHIKITA 1999-02-02 18:00:00 TS -19.4333 67.3000 30 997 reunion main 998 894 O____O______O_ jtwc_sh SH171999 -19.7000 67.7000 40 0 -19.3000 67.1000 2 30 997 2.50000 2.50000 -19.3000 67.1000 TC 35 997 20 272
1999029S14096 1999 9 SI MM CHIKITA 1999-02-02 21:00:00 TS -19.4247 66.2197 main 884 780 P____P______P_ SH171999 -19.7137 66.9030 40 0 -19.2802 65.8781 2 30 997 -19.2802 65.8781 TC 35 997 20 272
1999029S14096 1999 9 SI MM CHIKITA 1999-02-03 00:00:00 TS -19.3667 65.1333 30 997 reunion main 769 670 O____O______O_ jtwc_sh SH171999 -19.7000 66.0000 40 0 -19.2000 64.7000 2 30 997 2.50000 2.50000 -19.2000 64.7000 TC 35 997 21 277
1999029S14096 1999 9 SI MM CHIKITA 1999-02-03 03:00:00 TS -19.1748 64.0597 main 670 576 P____P______P_ SH171999 -19.5808 64.8147 37 0 -18.9718 63.6822 2 30 997 -18.9718 63.6822 TC 35 997 20 283
1999029S14096 1999 9 SI MM CHIKITA 1999-02-03 06:00:00 TS -18.9333 63.0667 30 997 reunion main 576 504 O____O______O_ jtwc_sh SH171999 -19.4000 63.6000 35 0 -18.7000 62.8000 2 30 997 2.00000 2.50000 -18.7000 62.8000 TC 35 997 18 285
1999029S14096 1999 9 SI MM CHIKITA 1999-02-03 09:00:00 TS -18.7071 62.2501 main 504 437 P____P______P_ SH171999 -19.1835 62.6349 35 0 -18.4688 62.0577 2 30 997 -18.4688 62.0577 TC 35 997 16 284
1999029S14096 1999 9 SI MM CHIKITA 1999-02-03 12:00:00 TS -18.5333 61.4333 30 997 reunion main 427 350 O____O______O_ jtwc_sh SH171999 -19.0000 61.7000 35 0 -18.3000 61.3000 2 30 997 2.00000 2.50000 -18.3000 61.3000 TC 35 997 18 279
1999029S14096 1999 9 SI MM CHIKITA 1999-02-03 15:00:00 TS -18.4336 60.4124 main 341 260 P____P______P_ SH171999 -18.8905 60.5773 30 -1 -18.2051 60.3299 2 29 997 -18.2051 60.3299 TC 35 997 20 273
1999029S14096 1999 9 SI MM CHIKITA 1999-02-03 18:00:00 TS -18.4333 59.3667 28 998 reunion main 260 197 O____O______O_ jtwc_sh SH171999 -18.9000 59.5000 25 -1 -18.2000 59.3000 2 28 998 2.00000 2.50000 -18.2000 59.3000 TC 35 998 19 267
1999029S14096 1999 9 SI MM CHIKITA 1999-02-03 21:00:00 TS -18.5437 58.4296 main 193 156 P____P______P_ SH171999 -19.0760 58.6930 25 -1 -18.2775 58.2979 2 26 998 -18.2775 58.2979 TC 32 998 17 261
1999029S14096 1999 9 SI MM CHIKITA 1999-02-04 00:00:00 TS -18.7000 57.5667 25 999 reunion main 156 154 O____O______O_ jtwc_sh SH171999 -19.3000 57.9000 25 -1 -18.4000 57.4000 2 25 999 2.00000 2.00000 -18.4000 57.4000 TC 30 999 16 262
1999029S14096 1999 9 SI MM CHIKITA 1999-02-04 03:00:00 TS -18.7745 56.7678 main 162 162 P____P______P_ SH171999 -19.4304 56.8650 25 -1 -18.4466 56.7192 2 25 999 -18.4466 56.7192 TC 30 999 15 262
1999029S14096 1999 9 SI MM CHIKITA 1999-02-04 06:00:00 TS -18.9000 56.0000 25 1000 reunion main 206 201 O____O______O_ jtwc_sh SH171999 -19.5000 55.8000 25 -1 -18.6000 56.1000 2 25 1000 1.50000 2.00000 -18.6000 56.1000 TC 30 1000 15 254
1999029S14096 1999 9 SI MM CHIKITA 1999-02-04 09:00:00 TS -19.1947 55.1980 main 201 186 P____P______P_ SH171999 -19.4846 54.8469 25 -1 -19.0498 55.3735 2 25 1000 -19.0498 55.3735 TC 30 1000 16 248
1999029S14096 1999 9 SI MM CHIKITA 1999-02-04 12:00:00 TS -19.5000 54.4000 25 1000 reunion main 192 192 O____O______O_ jtwc_sh SH171999 -19.5000 54.0000 25 -1 -19.5000 54.6000 2 25 1000 1.50000 2.00000 -19.5000 54.6000 TC 30 1000 16 253
1999029S14096 1999 9 SI MM CHIKITA 1999-02-04 15:00:00 TS -19.6407 53.6102 main 236 236 P____P______P_ SH171999 -19.6169 53.2621 27 -1 -19.6525 53.7842 2 25 1000 -19.6525 53.7842 TC 30 1000 15 260
1999029S14096 1999 9 SI MM CHIKITA 1999-02-04 18:00:00 TS -19.7667 52.8667 25 1000 reunion main 280 280 O____O______O_ jtwc_sh SH171999 -19.9000 52.6000 30 -1 -19.7000 53.0000 2 25 1000 1.50000 2.00000 -19.7000 53.0000 TC 30 1000 14 255
1999029S14096 1999 9 SI MM CHIKITA 1999-02-04 21:00:00 TS -19.9863 52.1915 main 335 293 P____P______P_ SH171999 -20.3896 51.9499 27 -1 -19.7847 52.3123 2 22 1001 -19.7847 52.3123 TC 27 1001 13 248
1999029S14096 1999 9 SI MM CHIKITA 1999-02-05 00:00:00 TS -20.2667 51.5667 20 1002 reunion main 294 239 O____O______O_ jtwc_sh SH171999 -21.0000 51.3000 25 -1 -19.9000 51.7000 2 20 1002 1.50000 1.50000 -19.9000 51.7000 TC 25 1002 13 242
1999029S14096 1999 9 SI MM CHIKITA 1999-02-05 03:00:00 TS -20.5896 50.9631 main 239 193 P____P______P_ SH171999 -21.6082 50.6135 25 -1 -20.0804 51.1379 2 20 1003 -20.0804 51.1379 TC 22 1003 13 239
1999029S14096 1999 9 SI MM CHIKITA 1999-02-05 06:00:00 TS -20.9333 50.3667 20 1004 reunion main 193 O____O______O_ jtwc_sh SH171999 -22.2000 49.9000 25 -1 -20.3000 50.6000 6 20 1004 9.90000 -20.3000 50.6000 TC 20 1004 13 238

IBTrACS Databaseについて

本データベースは、米国NOAAが公開する1842年以降の世界の熱帯低気圧のベストトラックデータアーカイブInternational Best Track Archive for Climate Stewardship (IBTrACS)を、ウェブで閲覧しやすい形式に変換したものです。

最終更新日:2021-10-08